sensor_id;sensor_type;location;lat;lon;timestamp;pressure;altitude;pressure_sealevel;temperature;humidity
49030;BME280;43337;52.070;4.508;2023-06-26T00:01:14;101306.69;;;25.03;69.62
49030;BME280;43337;52.070;4.508;2023-06-26T00:03:39;101310.69;;;24.89;72.01
49030;BME280;43337;52.070;4.508;2023-06-26T00:06:04;101307.75;;;24.73;74.24
49030;BME280;43337;52.070;4.508;2023-06-26T00:08:30;101308.66;;;24.54;76.06
49030;BME280;43337;52.070;4.508;2023-06-26T00:10:55;101305.94;;;24.44;79.15
49030;BME280;43337;52.070;4.508;2023-06-26T00:13:22;101311.34;;;24.34;80.11
49030;BME280;43337;52.070;4.508;2023-06-26T00:15:47;101321.25;;;24.15;81.76
49030;BME280;43337;52.070;4.508;2023-06-26T00:18:13;101331.59;;;24.00;83.32
49030;BME280;43337;52.070;4.508;2023-06-26T00:20:38;101326.34;;;23.88;85.14
49030;BME280;43337;52.070;4.508;2023-06-26T00:23:03;101331.97;;;23.76;85.50
49030;BME280;43337;52.070;4.508;2023-06-26T00:25:35;101338.75;;;23.70;86.13
49030;BME280;43337;52.070;4.508;2023-06-26T00:28:01;101348.47;;;23.61;86.90
49030;BME280;43337;52.070;4.508;2023-06-26T00:30:26;101343.63;;;23.55;87.62
49030;BME280;43337;52.070;4.508;2023-06-26T00:32:52;101339.78;;;23.48;87.92
49030;BME280;43337;52.070;4.508;2023-06-26T00:35:17;101327.00;;;23.31;88.18
49030;BME280;43337;52.070;4.508;2023-06-26T00:37:43;101334.91;;;23.32;88.69
49030;BME280;43337;52.070;4.508;2023-06-26T00:40:09;101323.41;;;23.21;88.45
49030;BME280;43337;52.070;4.508;2023-06-26T00:42:34;101345.31;;;23.16;88.12
49030;BME280;43337;52.070;4.508;2023-06-26T00:45:00;101344.75;;;23.12;89.31
49030;BME280;43337;52.070;4.508;2023-06-26T00:47:25;101327.28;;;22.97;89.39
49030;BME280;43337;52.070;4.508;2023-06-26T00:49:54;101350.84;;;22.94;89.92
49030;BME280;43337;52.070;4.508;2023-06-26T00:52:20;101338.66;;;22.89;90.49
49030;BME280;43337;52.070;4.508;2023-06-26T00:54:46;101339.19;;;22.83;91.43
49030;BME280;43337;52.070;4.508;2023-06-26T00:57:11;101347.50;;;22.80;92.33
49030;BME280;43337;52.070;4.508;2023-06-26T00:59:37;101349.59;;;22.77;93.24
49030;BME280;43337;52.070;4.508;2023-06-26T01:02:03;101346.47;;;22.72;94.36
49030;BME280;43337;52.070;4.508;2023-06-26T01:04:28;101347.13;;;22.64;95.05
49030;BME280;43337;52.070;4.508;2023-06-26T01:06:57;101340.19;;;22.61;95.25
49030;BME280;43337;52.070;4.508;2023-06-26T01:09:24;101345.94;;;22.57;96.67
49030;BME280;43337;52.070;4.508;2023-06-26T01:11:50;101334.88;;;22.50;96.34
49030;BME280;43337;52.070;4.508;2023-06-26T01:14:16;101328.91;;;22.47;96.69
49030;BME280;43337;52.070;4.508;2023-06-26T01:16:43;101344.16;;;22.46;98.24
49030;BME280;43337;52.070;4.508;2023-06-26T01:19:20;101347.09;;;22.43;99.31
49030;BME280;43337;52.070;4.508;2023-06-26T01:21:51;101340.22;;;22.29;98.80
49030;BME280;43337;52.070;4.508;2023-06-26T01:24:22;101354.34;;;22.31;100.00
49030;BME280;43337;52.070;4.508;2023-06-26T01:26:54;101358.97;;;22.29;100.00
49030;BME280;43337;52.070;4.508;2023-06-26T01:29:21;101359.97;;;22.28;100.00
49030;BME280;43337;52.070;4.508;2023-06-26T01:31:49;101338.19;;;22.22;100.00
49030;BME280;43337;52.070;4.508;2023-06-26T01:34:16;101348.78;;;22.23;100.00
49030;BME280;43337;52.070;4.508;2023-06-26T01:36:44;101330.16;;;22.10;100.00
49030;BME280;43337;52.070;4.508;2023-06-26T01:39:09;101358.47;;;22.14;100.00
49030;BME280;43337;52.070;4.508;2023-06-26T01:41:34;101354.06;;;22.13;100.00
49030;BME280;43337;52.070;4.508;2023-06-26T01:47:01;101351.13;;;22.05;100.00
49030;BME280;43337;52.070;4.508;2023-06-26T01:52:41;101332.97;;;21.98;100.00
49030;BME280;43337;52.070;4.508;2023-06-26T01:57:56;101351.16;;;21.94;100.00
49030;BME280;43337;52.070;4.508;2023-06-26T02:00:23;101349.09;;;21.86;100.00
49030;BME280;43337;52.070;4.508;2023-06-26T02:02:49;101347.66;;;21.82;100.00
49030;BME280;43337;52.070;4.508;2023-06-26T02:05:14;101364.97;;;21.78;100.00
49030;BME280;43337;52.070;4.508;2023-06-26T02:07:40;101360.13;;;21.72;100.00
49030;BME280;43337;52.070;4.508;2023-06-26T02:10:06;101367.06;;;21.63;100.00
49030;BME280;43337;52.070;4.508;2023-06-26T02:12:31;101371.69;;;21.61;100.00
49030;BME280;43337;52.070;4.508;2023-06-26T02:14:57;101373.03;;;21.56;100.00
49030;BME280;43337;52.070;4.508;2023-06-26T02:17:22;101371.09;;;21.58;100.00
49030;BME280;43337;52.070;4.508;2023-06-26T02:19:47;101353.66;;;21.52;100.00
49030;BME280;43337;52.070;4.508;2023-06-26T02:22:16;101360.63;;;21.55;100.00
49030;BME280;43337;52.070;4.508;2023-06-26T02:24:42;101367.34;;;21.49;100.00
49030;BME280;43337;52.070;4.508;2023-06-26T02:27:08;101371.25;;;21.45;100.00
49030;BME280;43337;52.070;4.508;2023-06-26T02:29:34;101389.84;;;21.47;100.00
49030;BME280;43337;52.070;4.508;2023-06-26T02:31:59;101382.91;;;21.44;100.00
49030;BME280;43337;52.070;4.508;2023-06-26T02:34:24;101370.13;;;21.36;100.00
49030;BME280;43337;52.070;4.508;2023-06-26T02:36:50;101383.28;;;21.39;100.00
49030;BME280;43337;52.070;4.508;2023-06-26T02:39:15;101363.78;;;21.26;100.00
49030;BME280;43337;52.070;4.508;2023-06-26T02:41:40;101360.84;;;21.18;100.00
49030;BME280;43337;52.070;4.508;2023-06-26T02:44:06;101386.16;;;21.25;100.00
49030;BME280;43337;52.070;4.508;2023-06-26T02:46:32;101381.91;;;21.23;100.00
49030;BME280;43337;52.070;4.508;2023-06-26T02:48:58;101383.00;;;21.20;100.00
49030;BME280;43337;52.070;4.508;2023-06-26T02:51:24;101395.16;;;21.13;100.00
49030;BME280;43337;52.070;4.508;2023-06-26T02:53:49;101402.47;;;21.11;100.00
49030;BME280;43337;52.070;4.508;2023-06-26T02:56:15;101400.38;;;21.03;100.00
49030;BME280;43337;52.070;4.508;2023-06-26T02:58:40;101393.91;;;20.94;100.00
49030;BME280;43337;52.070;4.508;2023-06-26T03:01:05;101397.53;;;20.82;100.00
49030;BME280;43337;52.070;4.508;2023-06-26T03:03:30;101419.34;;;20.89;100.00
49030;BME280;43337;52.070;4.508;2023-06-26T03:06:08;101428.56;;;20.85;100.00
49030;BME280;43337;52.070;4.508;2023-06-26T03:08:37;101420.38;;;20.75;100.00
49030;BME280;43337;52.070;4.508;2023-06-26T03:11:04;101407.72;;;20.66;100.00
49030;BME280;43337;52.070;4.508;2023-06-26T03:13:30;101432.91;;;20.75;100.00
49030;BME280;43337;52.070;4.508;2023-06-26T03:15:55;101431.22;;;20.73;100.00
49030;BME280;43337;52.070;4.508;2023-06-26T03:18:20;101434.97;;;20.71;100.00
49030;BME280;43337;52.070;4.508;2023-06-26T03:20:46;101432.63;;;20.66;100.00
49030;BME280;43337;52.070;4.508;2023-06-26T03:23:11;101427.13;;;20.57;100.00
49030;BME280;43337;52.070;4.508;2023-06-26T03:25:36;101431.50;;;20.58;100.00
49030;BME280;43337;52.070;4.508;2023-06-26T03:28:02;101439.53;;;20.58;100.00
49030;BME280;43337;52.070;4.508;2023-06-26T03:30:27;101441.47;;;20.56;100.00
49030;BME280;43337;52.070;4.508;2023-06-26T03:32:52;101442.44;;;20.55;100.00
49030;BME280;43337;52.070;4.508;2023-06-26T03:35:18;101436.59;;;20.50;100.00
49030;BME280;43337;52.070;4.508;2023-06-26T03:37:44;101443.75;;;20.49;100.00
49030;BME280;43337;52.070;4.508;2023-06-26T03:40:09;101445.78;;;20.45;100.00
49030;BME280;43337;52.070;4.508;2023-06-26T03:42:35;101430.03;;;20.30;100.00
49030;BME280;43337;52.070;4.508;2023-06-26T03:45:00;101444.00;;;20.33;100.00
49030;BME280;43337;52.070;4.508;2023-06-26T03:47:25;101430.47;;;20.23;100.00
49030;BME280;43337;52.070;4.508;2023-06-26T03:49:50;101447.84;;;20.29;100.00
49030;BME280;43337;52.070;4.508;2023-06-26T03:52:16;101449.19;;;20.23;100.00
49030;BME280;43337;52.070;4.508;2023-06-26T03:54:41;101459.75;;;20.25;100.00
49030;BME280;43337;52.070;4.508;2023-06-26T03:57:07;101458.19;;;20.22;100.00
49030;BME280;43337;52.070;4.508;2023-06-26T03:59:32;101464.09;;;20.15;100.00
49030;BME280;43337;52.070;4.508;2023-06-26T04:01:57;101464.94;;;20.15;100.00
49030;BME280;43337;52.070;4.508;2023-06-26T04:04:23;101476.25;;;20.19;100.00
49030;BME280;43337;52.070;4.508;2023-06-26T04:06:49;101479.03;;;20.17;100.00
49030;BME280;43337;52.070;4.508;2023-06-26T04:09:14;101482.34;;;20.21;100.00
49030;BME280;43337;52.070;4.508;2023-06-26T04:11:39;101487.59;;;20.22;100.00
49030;BME280;43337;52.070;4.508;2023-06-26T04:14:05;101489.00;;;20.15;100.00
49030;BME280;43337;52.070;4.508;2023-06-26T04:16:30;101504.91;;;20.17;100.00
49030;BME280;43337;52.070;4.508;2023-06-26T04:18:55;101504.28;;;20.13;100.00
49030;BME280;43337;52.070;4.508;2023-06-26T04:21:21;101507.41;;;20.07;100.00
49030;BME280;43337;52.070;4.508;2023-06-26T04:23:49;101502.91;;;20.08;100.00
49030;BME280;43337;52.070;4.508;2023-06-26T04:26:15;101493.06;;;20.08;100.00
49030;BME280;43337;52.070;4.508;2023-06-26T04:28:40;101508.06;;;20.11;100.00
49030;BME280;43337;52.070;4.508;2023-06-26T04:31:06;101501.44;;;20.04;100.00
49030;BME280;43337;52.070;4.508;2023-06-26T04:33:32;101502.06;;;20.07;100.00
49030;BME280;43337;52.070;4.508;2023-06-26T04:35:57;101501.09;;;20.08;100.00
49030;BME280;43337;52.070;4.508;2023-06-26T04:38:22;101517.66;;;20.13;100.00
49030;BME280;43337;52.070;4.508;2023-06-26T04:40:48;101510.81;;;20.09;100.00
49030;BME280;43337;52.070;4.508;2023-06-26T04:43:14;101518.75;;;20.11;100.00
49030;BME280;43337;52.070;4.508;2023-06-26T04:45:39;101506.00;;;20.02;100.00
49030;BME280;43337;52.070;4.508;2023-06-26T04:48:05;101493.97;;;19.96;100.00
49030;BME280;43337;52.070;4.508;2023-06-26T04:50:31;101533.59;;;20.15;100.00
49030;BME280;43337;52.070;4.508;2023-06-26T04:52:58;101501.97;;;19.96;100.00
49030;BME280;43337;52.070;4.508;2023-06-26T04:55:24;101541.63;;;20.15;100.00
49030;BME280;43337;52.070;4.508;2023-06-26T04:57:50;101547.06;;;20.13;100.00
49030;BME280;43337;52.070;4.508;2023-06-26T05:00:16;101536.41;;;20.00;100.00
49030;BME280;43337;52.070;4.508;2023-06-26T05:02:41;101552.56;;;19.99;100.00
49030;BME280;43337;52.070;4.508;2023-06-26T05:05:07;101552.00;;;19.94;100.00
49030;BME280;43337;52.070;4.508;2023-06-26T05:07:32;101548.03;;;19.87;100.00
49030;BME280;43337;52.070;4.508;2023-06-26T05:09:58;101550.31;;;19.80;100.00
49030;BME280;43337;52.070;4.508;2023-06-26T05:12:23;101551.69;;;19.73;100.00
49030;BME280;43337;52.070;4.508;2023-06-26T05:14:48;101576.59;;;19.86;100.00
49030;BME280;43337;52.070;4.508;2023-06-26T05:17:14;101573.84;;;19.88;100.00
49030;BME280;43337;52.070;4.508;2023-06-26T05:19:40;101569.34;;;19.88;100.00
49030;BME280;43337;52.070;4.508;2023-06-26T05:22:06;101588.38;;;19.96;100.00
49030;BME280;43337;52.070;4.508;2023-06-26T05:24:34;101559.38;;;19.90;100.00
49030;BME280;43337;52.070;4.508;2023-06-26T05:27:00;101579.25;;;20.12;100.00
49030;BME280;43337;52.070;4.508;2023-06-26T05:29:26;101579.56;;;20.20;100.00
49030;BME280;43337;52.070;4.508;2023-06-26T05:31:53;101573.25;;;20.21;100.00
49030;BME280;43337;52.070;4.508;2023-06-26T05:34:22;101597.31;;;20.34;100.00
49030;BME280;43337;52.070;4.508;2023-06-26T05:36:50;101594.31;;;20.38;100.00
49030;BME280;43337;52.070;4.508;2023-06-26T05:39:18;101601.38;;;20.39;100.00
49030;BME280;43337;52.070;4.508;2023-06-26T05:41:44;101601.78;;;20.33;100.00
49030;BME280;43337;52.070;4.508;2023-06-26T05:44:10;101613.13;;;20.37;100.00
49030;BME280;43337;52.070;4.508;2023-06-26T05:46:35;101620.50;;;20.33;100.00
49030;BME280;43337;52.070;4.508;2023-06-26T05:49:01;101626.75;;;20.34;100.00
49030;BME280;43337;52.070;4.508;2023-06-26T05:51:27;101627.81;;;20.31;100.00
49030;BME280;43337;52.070;4.508;2023-06-26T05:53:53;101637.53;;;20.32;100.00
49030;BME280;43337;52.070;4.508;2023-06-26T05:56:19;101630.28;;;20.34;100.00
49030;BME280;43337;52.070;4.508;2023-06-26T05:58:45;101630.47;;;20.31;100.00
49030;BME280;43337;52.070;4.508;2023-06-26T06:01:10;101636.34;;;20.36;100.00
49030;BME280;43337;52.070;4.508;2023-06-26T06:03:36;101622.03;;;20.37;100.00
49030;BME280;43337;52.070;4.508;2023-06-26T06:06:01;101631.31;;;20.44;100.00
49030;BME280;43337;52.070;4.508;2023-06-26T06:08:26;101638.38;;;20.45;100.00
49030;BME280;43337;52.070;4.508;2023-06-26T06:10:52;101653.06;;;20.53;100.00
49030;BME280;43337;52.070;4.508;2023-06-26T06:13:18;101638.72;;;20.54;100.00
49030;BME280;43337;52.070;4.508;2023-06-26T06:15:43;101646.53;;;20.57;100.00
49030;BME280;43337;52.070;4.508;2023-06-26T06:18:08;101647.69;;;20.65;100.00
49030;BME280;43337;52.070;4.508;2023-06-26T06:20:34;101653.97;;;20.77;100.00
49030;BME280;43337;52.070;4.508;2023-06-26T06:23:00;101656.53;;;20.79;100.00
49030;BME280;43337;52.070;4.508;2023-06-26T06:25:25;101657.72;;;20.75;100.00
49030;BME280;43337;52.070;4.508;2023-06-26T06:27:50;101661.50;;;20.72;100.00
49030;BME280;43337;52.070;4.508;2023-06-26T06:30:16;101666.38;;;20.78;100.00
49030;BME280;43337;52.070;4.508;2023-06-26T06:32:41;101652.78;;;20.81;100.00
49030;BME280;43337;52.070;4.508;2023-06-26T06:35:07;101681.63;;;21.02;100.00
49030;BME280;43337;52.070;4.508;2023-06-26T06:37:36;101683.22;;;21.04;100.00
49030;BME280;43337;52.070;4.508;2023-06-26T06:40:01;101663.34;;;20.95;100.00
49030;BME280;43337;52.070;4.508;2023-06-26T06:42:28;101694.44;;;21.09;100.00
49030;BME280;43337;52.070;4.508;2023-06-26T06:44:54;101695.09;;;21.13;100.00
49030;BME280;43337;52.070;4.508;2023-06-26T06:47:19;101686.31;;;21.11;100.00
49030;BME280;43337;52.070;4.508;2023-06-26T06:49:44;101694.56;;;21.08;100.00
49030;BME280;43337;52.070;4.508;2023-06-26T06:52:09;101697.03;;;21.11;100.00
49030;BME280;43337;52.070;4.508;2023-06-26T06:54:54;101709.81;;;21.31;100.00
49030;BME280;43337;52.070;4.508;2023-06-26T06:57:20;101727.03;;;21.40;97.85
49030;BME280;43337;52.070;4.508;2023-06-26T06:59:45;101712.16;;;21.36;99.42
49030;BME280;43337;52.070;4.508;2023-06-26T07:02:12;101737.66;;;21.41;99.13
49030;BME280;43337;52.070;4.508;2023-06-26T07:04:37;101715.38;;;21.28;98.06
49030;BME280;43337;52.070;4.508;2023-06-26T07:07:03;101716.72;;;21.23;98.40
49030;BME280;43337;52.070;4.508;2023-06-26T07:09:28;101727.53;;;21.34;99.29
49030;BME280;43337;52.070;4.508;2023-06-26T07:11:54;101727.59;;;21.45;98.19
49030;BME280;43337;52.070;4.508;2023-06-26T07:14:19;101723.06;;;21.45;97.30
49030;BME280;43337;52.070;4.508;2023-06-26T07:16:44;101705.44;;;21.30;96.89
49030;BME280;43337;52.070;4.508;2023-06-26T07:19:10;101728.16;;;21.37;97.56
49030;BME280;43337;52.070;4.508;2023-06-26T07:21:35;101723.53;;;21.39;97.62
49030;BME280;43337;52.070;4.508;2023-06-26T07:24:00;101744.88;;;21.52;95.58
49030;BME280;43337;52.070;4.508;2023-06-26T07:26:26;101739.25;;;21.44;95.32
49030;BME280;43337;52.070;4.508;2023-06-26T07:28:51;101741.94;;;21.44;95.61
49030;BME280;43337;52.070;4.508;2023-06-26T07:31:16;101759.63;;;21.47;95.16
49030;BME280;43337;52.070;4.508;2023-06-26T07:33:42;101755.56;;;21.41;94.25
49030;BME280;43337;52.070;4.508;2023-06-26T07:36:07;101756.00;;;21.35;94.41
49030;BME280;43337;52.070;4.508;2023-06-26T07:38:32;101753.34;;;21.35;95.32
49030;BME280;43337;52.070;4.508;2023-06-26T07:40:58;101756.66;;;21.38;95.12
49030;BME280;43337;52.070;4.508;2023-06-26T07:43:23;101762.41;;;21.45;95.17
49030;BME280;43337;52.070;4.508;2023-06-26T07:45:49;101767.94;;;21.55;94.79
49030;BME280;43337;52.070;4.508;2023-06-26T07:48:16;101754.53;;;21.55;93.60
49030;BME280;43337;52.070;4.508;2023-06-26T07:50:42;101770.00;;;21.51;92.64
49030;BME280;43337;52.070;4.508;2023-06-26T07:53:07;101765.72;;;21.49;92.90
49030;BME280;43337;52.070;4.508;2023-06-26T07:55:32;101780.59;;;21.53;92.09
49030;BME280;43337;52.070;4.508;2023-06-26T07:57:58;101786.13;;;21.62;92.34
49030;BME280;43337;52.070;4.508;2023-06-26T08:00:23;101783.09;;;21.67;91.01
49030;BME280;43337;52.070;4.508;2023-06-26T08:02:49;101790.91;;;21.70;90.31
49030;BME280;43337;52.070;4.508;2023-06-26T08:05:14;101794.16;;;21.62;90.69
49030;BME280;43337;52.070;4.508;2023-06-26T08:07:39;101792.13;;;21.66;90.98
49030;BME280;43337;52.070;4.508;2023-06-26T08:10:05;101797.41;;;21.79;90.52
49030;BME280;43337;52.070;4.508;2023-06-26T08:12:31;101788.66;;;21.77;90.17
49030;BME280;43337;52.070;4.508;2023-06-26T08:14:56;101783.97;;;21.91;89.84
49030;BME280;43337;52.070;4.508;2023-06-26T08:17:21;101795.81;;;22.00;88.95
49030;BME280;43337;52.070;4.508;2023-06-26T08:19:47;101790.91;;;21.94;87.99
49030;BME280;43337;52.070;4.508;2023-06-26T08:22:12;101807.00;;;21.94;86.60
49030;BME280;43337;52.070;4.508;2023-06-26T08:24:38;101802.22;;;21.86;85.89
49030;BME280;43337;52.070;4.508;2023-06-26T08:27:03;101809.44;;;21.97;85.94
49030;BME280;43337;52.070;4.508;2023-06-26T08:29:29;101805.69;;;22.00;85.71
49030;BME280;43337;52.070;4.508;2023-06-26T08:31:54;101804.59;;;22.02;85.33
49030;BME280;43337;52.070;4.508;2023-06-26T08:34:19;101799.53;;;22.10;85.05
49030;BME280;43337;52.070;4.508;2023-06-26T08:36:45;101802.50;;;22.18;84.93
49030;BME280;43337;52.070;4.508;2023-06-26T08:39:10;101807.53;;;22.23;83.65
49030;BME280;43337;52.070;4.508;2023-06-26T08:41:36;101831.66;;;22.23;82.37
49030;BME280;43337;52.070;4.508;2023-06-26T08:44:02;101825.91;;;22.16;82.88
49030;BME280;43337;52.070;4.508;2023-06-26T08:46:28;101827.66;;;22.29;81.94
49030;BME280;43337;52.070;4.508;2023-06-26T08:49:01;101830.38;;;22.40;80.41
49030;BME280;43337;52.070;4.508;2023-06-26T08:51:28;101826.97;;;22.38;80.30
49030;BME280;43337;52.070;4.508;2023-06-26T08:53:58;101825.63;;;22.43;76.81
49030;BME280;43337;52.070;4.508;2023-06-26T08:56:28;101828.81;;;22.49;78.79
49030;BME280;43337;52.070;4.508;2023-06-26T08:58:54;101824.91;;;22.41;79.20
49030;BME280;43337;52.070;4.508;2023-06-26T09:01:20;101817.34;;;22.47;79.81
49030;BME280;43337;52.070;4.508;2023-06-26T09:03:45;101831.44;;;22.73;80.02
49030;BME280;43337;52.070;4.508;2023-06-26T09:06:11;101837.28;;;22.78;78.98
49030;BME280;43337;52.070;4.508;2023-06-26T09:08:36;101845.56;;;22.75;79.56
49030;BME280;43337;52.070;4.508;2023-06-26T09:11:02;101828.97;;;22.70;79.65
49030;BME280;43337;52.070;4.508;2023-06-26T09:13:30;101848.84;;;22.67;79.76
49030;BME280;43337;52.070;4.508;2023-06-26T09:15:56;101858.47;;;22.58;79.56
49030;BME280;43337;52.070;4.508;2023-06-26T09:18:22;101851.75;;;22.41;79.71
49030;BME280;43337;52.070;4.508;2023-06-26T09:20:50;101850.97;;;22.39;80.47
49030;BME280;43337;52.070;4.508;2023-06-26T09:23:16;101858.59;;;22.46;80.31
49030;BME280;43337;52.070;4.508;2023-06-26T09:25:41;101860.91;;;22.50;80.49
49030;BME280;43337;52.070;4.508;2023-06-26T09:28:08;101876.19;;;22.61;80.74
49030;BME280;43337;52.070;4.508;2023-06-26T09:30:34;101883.25;;;22.62;80.15
49030;BME280;43337;52.070;4.508;2023-06-26T09:33:16;101873.28;;;22.64;80.29
49030;BME280;43337;52.070;4.508;2023-06-26T09:35:45;101884.75;;;22.66;78.82
49030;BME280;43337;52.070;4.508;2023-06-26T09:38:11;101880.72;;;22.60;80.00
49030;BME280;43337;52.070;4.508;2023-06-26T09:40:37;101866.91;;;22.54;80.20
49030;BME280;43337;52.070;4.508;2023-06-26T09:43:06;101887.44;;;22.77;79.74
49030;BME280;43337;52.070;4.508;2023-06-26T09:45:33;101883.78;;;22.78;78.58
49030;BME280;43337;52.070;4.508;2023-06-26T09:48:05;101903.13;;;22.95;77.10
49030;BME280;43337;52.070;4.508;2023-06-26T09:50:33;101896.56;;;22.99;77.96
49030;BME280;43337;52.070;4.508;2023-06-26T09:53:10;101911.81;;;22.98;74.03
49030;BME280;43337;52.070;4.508;2023-06-26T09:55:36;101911.03;;;22.85;76.80
49030;BME280;43337;52.070;4.508;2023-06-26T09:58:03;101902.00;;;22.86;76.65
49030;BME280;43337;52.070;4.508;2023-06-26T10:00:30;101900.88;;;22.77;74.69
49030;BME280;43337;52.070;4.508;2023-06-26T10:02:55;101912.97;;;22.83;73.93
49030;BME280;43337;52.070;4.508;2023-06-26T10:05:21;101917.25;;;22.85;75.21
49030;BME280;43337;52.070;4.508;2023-06-26T10:07:46;101918.66;;;22.91;75.22
49030;BME280;43337;52.070;4.508;2023-06-26T10:10:13;101916.34;;;23.09;75.10
49030;BME280;43337;52.070;4.508;2023-06-26T10:12:42;101900.00;;;23.12;74.20
49030;BME280;43337;52.070;4.508;2023-06-26T10:15:09;101921.25;;;23.26;73.70
49030;BME280;43337;52.070;4.508;2023-06-26T10:17:38;101921.50;;;23.34;72.20
49030;BME280;43337;52.070;4.508;2023-06-26T10:20:06;101912.59;;;23.34;70.34
49030;BME280;43337;52.070;4.508;2023-06-26T10:22:39;101926.13;;;23.32;70.59
49030;BME280;43337;52.070;4.508;2023-06-26T10:25:08;101928.09;;;23.30;69.95
49030;BME280;43337;52.070;4.508;2023-06-26T10:27:40;101909.91;;;23.23;67.19
49030;BME280;43337;52.070;4.508;2023-06-26T10:30:12;101906.38;;;23.22;66.81
49030;BME280;43337;52.070;4.508;2023-06-26T10:32:40;101943.50;;;23.39;68.05
49030;BME280;43337;52.070;4.508;2023-06-26T10:35:06;101951.09;;;23.46;67.84
49030;BME280;43337;52.070;4.508;2023-06-26T10:37:45;101948.78;;;23.52;64.90
49030;BME280;43337;52.070;4.508;2023-06-26T10:40:12;101944.72;;;23.47;66.42
49030;BME280;43337;52.070;4.508;2023-06-26T10:42:39;101953.78;;;23.46;65.01
49030;BME280;43337;52.070;4.508;2023-06-26T10:45:20;101958.03;;;23.48;65.59
49030;BME280;43337;52.070;4.508;2023-06-26T10:47:47;101953.03;;;23.55;65.81
49030;BME280;43337;52.070;4.508;2023-06-26T10:50:27;101961.47;;;23.61;64.09
49030;BME280;43337;52.070;4.508;2023-06-26T10:55:58;101965.13;;;23.83;65.44
49030;BME280;43337;52.070;4.508;2023-06-26T10:58:40;101958.28;;;23.90;60.97
49030;BME280;43337;52.070;4.508;2023-06-26T11:03:43;101964.50;;;24.02;63.37
49030;BME280;43337;52.070;4.508;2023-06-26T11:06:21;101963.03;;;23.98;60.93
49030;BME280;43337;52.070;4.508;2023-06-26T11:08:54;101977.34;;;23.98;62.45
49030;BME280;43337;52.070;4.508;2023-06-26T11:14:19;101989.84;;;23.99;63.38
49030;BME280;43337;52.070;4.508;2023-06-26T11:16:45;101987.53;;;23.95;62.68
49030;BME280;43337;52.070;4.508;2023-06-26T11:19:11;101987.66;;;23.82;62.16
49030;BME280;43337;52.070;4.508;2023-06-26T11:21:39;101997.88;;;23.66;62.91
49030;BME280;43337;52.070;4.508;2023-06-26T11:24:06;102006.09;;;23.64;63.46
49030;BME280;43337;52.070;4.508;2023-06-26T11:26:37;102009.63;;;23.64;63.85
49030;BME280;43337;52.070;4.508;2023-06-26T11:29:03;102001.09;;;23.71;64.25
49030;BME280;43337;52.070;4.508;2023-06-26T11:33:55;101995.72;;;23.82;62.50
49030;BME280;43337;52.070;4.508;2023-06-26T11:36:25;102004.88;;;24.02;61.94
49030;BME280;43337;52.070;4.508;2023-06-26T11:38:59;102000.69;;;24.20;60.96
49030;BME280;43337;52.070;4.508;2023-06-26T11:41:27;102007.03;;;24.30;60.37
49030;BME280;43337;52.070;4.508;2023-06-26T11:43:53;102018.50;;;24.32;60.18
49030;BME280;43337;52.070;4.508;2023-06-26T11:46:20;102010.81;;;24.39;60.13
49030;BME280;43337;52.070;4.508;2023-06-26T11:48:47;102005.66;;;24.47;60.63
49030;BME280;43337;52.070;4.508;2023-06-26T11:51:16;102028.50;;;24.64;59.34
49030;BME280;43337;52.070;4.508;2023-06-26T11:53:43;102020.66;;;24.72;57.65
49030;BME280;43337;52.070;4.508;2023-06-26T11:56:13;102028.47;;;24.75;57.19
49030;BME280;43337;52.070;4.508;2023-06-26T11:58:59;102022.44;;;24.83;55.00
49030;BME280;43337;52.070;4.508;2023-06-26T12:01:39;102025.44;;;24.69;54.98
49030;BME280;43337;52.070;4.508;2023-06-26T12:04:07;102027.78;;;24.62;56.46
49030;BME280;43337;52.070;4.508;2023-06-26T12:06:36;102033.66;;;24.56;57.10
49030;BME280;43337;52.070;4.508;2023-06-26T12:09:04;102033.56;;;24.46;55.84
49030;BME280;43337;52.070;4.508;2023-06-26T12:11:34;102045.81;;;24.50;55.58
49030;BME280;43337;52.070;4.508;2023-06-26T12:14:00;102060.38;;;24.48;55.45
49030;BME280;43337;52.070;4.508;2023-06-26T12:16:30;102051.94;;;24.30;55.04
49030;BME280;43337;52.070;4.508;2023-06-26T12:19:03;102059.78;;;24.10;55.33
49030;BME280;43337;52.070;4.508;2023-06-26T12:24:06;102055.88;;;24.15;57.22
49030;BME280;43337;52.070;4.508;2023-06-26T12:26:32;102072.13;;;24.24;56.60
49030;BME280;43337;52.070;4.508;2023-06-26T12:29:08;102070.25;;;24.36;55.84
49030;BME280;43337;52.070;4.508;2023-06-26T12:31:34;102070.88;;;24.51;56.47
49030;BME280;43337;52.070;4.508;2023-06-26T12:34:00;102067.78;;;24.67;55.74
49030;BME280;43337;52.070;4.508;2023-06-26T12:36:26;102066.03;;;24.77;55.17
49030;BME280;43337;52.070;4.508;2023-06-26T12:38:53;102078.91;;;24.73;54.41
49030;BME280;43337;52.070;4.508;2023-06-26T12:41:19;102076.47;;;24.70;53.94
49030;BME280;43337;52.070;4.508;2023-06-26T12:43:45;102066.44;;;24.72;54.10
49030;BME280;43337;52.070;4.508;2023-06-26T12:46:10;102061.91;;;24.73;54.26
49030;BME280;43337;52.070;4.508;2023-06-26T12:48:40;102073.88;;;24.80;53.51
49030;BME280;43337;52.070;4.508;2023-06-26T12:51:12;102068.88;;;24.75;52.87
49030;BME280;43337;52.070;4.508;2023-06-26T12:53:39;102067.69;;;24.68;53.44
49030;BME280;43337;52.070;4.508;2023-06-26T12:56:10;102077.31;;;24.71;53.10
49030;BME280;43337;52.070;4.508;2023-06-26T12:58:37;102075.63;;;24.70;52.86
49030;BME280;43337;52.070;4.508;2023-06-26T13:01:05;102063.34;;;24.77;52.82
49030;BME280;43337;52.070;4.508;2023-06-26T13:03:35;102083.25;;;24.97;52.92
49030;BME280;43337;52.070;4.508;2023-06-26T13:06:02;102086.97;;;25.17;53.20